| time (UTC) | temp F | wind direction | speed MPH | gust MPH | rain 1hr in | rain 24hr in | rain mn in | humidity % | barometer mb |
| 20260509085802 | 57 | 112 | 4.0 | 4.0 | 0.00 | 0.35 | 0.00 | 72 | 1016.9 |
| 20260509075802 | 56 | 112 | 3.0 | 3.0 | 0.00 | 0.35 | 0.00 | 70 | 1016.8 |
| 20260509065801 | 54 | 67 | 3.0 | 3.0 | 0.00 | 0.35 | 0.00 | 74 | 1016.8 |
| 20260509055802 | 52 | 112 | 3.0 | 3.0 | 0.00 | 0.35 | 0.00 | 75 | 1016.9 |
| 20260509045802 | 49 | 157 | 3.0 | 3.0 | 0.00 | 0.35 | 0.00 | 82 | 1016.5 |
| 20260509035802 | 47 | 157 | 2.0 | 2.0 | 0.00 | 0.54 | 0.00 | 87 | 1016.6 |
| 20260509025801 | 47 | 157 | 3.0 | 3.0 | 0.00 | 0.54 | 0.00 | 84 | 1016.6 |
| 20260509015802 | 48 | 157 | 3.0 | 3.0 | 0.00 | 0.54 | 0.00 | 83 | 1016.8 |
| 20260509005801 | 48 | 157 | 3.0 | 3.0 | 0.00 | 0.54 | 0.00 | 81 | 1016.5 |
| 20260508235801 | 48 | 135 | 3.0 | 3.0 | 0.00 | 0.54 | 0.00 | 80 | 1016.4 |
| 20260508225801 | 49 | 90 | 9.0 | 9.0 | 0.00 | 0.54 | 0.00 | 76 | 1016.6 |
| 20260508215801 | 50 | 90 | 8.0 | 8.0 | 0.00 | 0.54 | 0.00 | 78 | 1016.4 |
| 20260508205801 | 52 | 90 | 8.0 | 8.0 | 0.00 | 0.54 | 0.00 | 78 | 1016.4 |
| 20260508195801 | 51 | 67 | 5.0 | 5.0 | 0.00 | 0.54 | 0.00 | 77 | 1015.9 |
| 20260508185801 | 51 | 67 | 8.0 | 8.0 | 0.00 | 0.54 | 0.00 | 78 | 1015.7 |
| 20260508175802 | 52 | 22 | 10.0 | 10.0 | 0.00 | 0.54 | 0.00 | 75 | 1015.6 |
| 20260508165801 | 53 | 67 | 12.0 | 12.0 | 0.00 | 0.54 | 0.00 | 74 | 1015.5 |
| 20260508155801 | 55 | 67 | 9.0 | 9.0 | 0.00 | 0.54 | 0.00 | 72 | 1015.2 |
| 20260508145802 | 55 | 90 | 9.0 | 9.0 | 0.00 | 0.54 | 0.00 | 72 | 1015.6 |
| 20260508135801 | 55 | 67 | 13.0 | 13.0 | 0.00 | 0.54 | 0.00 | 62 | 1015.6 |
| 20260508125801 | 56 | 67 | 12.0 | 12.0 | 0.00 | 0.54 | 0.00 | 64 | 1015.9 |
| 20260508115801 | 55 | 67 | 13.0 | 13.0 | 0.00 | 0.54 | 0.00 | 61 | 1016.2 |
| 20260508105801 | 57 | 67 | 10.0 | 10.0 | 0.00 | 0.54 | 0.00 | 58 | 1016.5 |
| 20260508095802 | 57 | 90 | 9.0 | 9.0 | 0.00 | 0.54 | 0.00 | 51 | 1016.4 |